createdAt,value
2023-03-29T00:04:20.814Z,4.42
2023-03-29T00:09:24.939Z,4.41
2023-03-29T00:14:29.082Z,4.43
2023-03-29T00:19:33.251Z,4.51
2023-03-29T00:24:37.408Z,4.52
2023-03-29T00:29:41.574Z,4.56
2023-03-29T00:34:43.847Z,4.59
2023-03-29T00:39:48.004Z,4.63
2023-03-29T00:44:50.301Z,4.68
2023-03-29T00:49:54.463Z,4.70
2023-03-29T00:54:58.617Z,4.71
2023-03-29T01:00:02.754Z,4.72
2023-03-29T01:05:06.980Z,4.74
2023-03-29T01:10:11.114Z,4.79
2023-03-29T01:15:15.305Z,4.79
2023-03-29T01:20:19.482Z,4.82
2023-03-29T01:25:23.603Z,4.83
2023-03-29T01:30:27.792Z,4.83
2023-03-29T01:35:31.933Z,4.85
2023-03-29T01:40:36.110Z,4.81
2023-03-29T01:45:40.326Z,4.87
2023-03-29T01:50:44.421Z,4.89
2023-03-29T01:55:48.610Z,4.91
2023-03-29T02:00:52.750Z,4.94
2023-03-29T02:05:56.929Z,4.95
2023-03-29T02:11:01.193Z,4.98
2023-03-29T02:16:05.280Z,4.99
2023-03-29T02:21:09.437Z,5.02
2023-03-29T02:26:13.583Z,5.07
2023-03-29T02:31:15.881Z,5.09
2023-03-29T02:36:20.030Z,5.10
2023-03-29T02:41:22.260Z,5.17
2023-03-29T02:46:26.442Z,5.21
2023-03-29T02:51:30.605Z,5.27
2023-03-29T02:56:34.773Z,5.36
2023-03-29T03:01:38.967Z,5.41
2023-03-29T03:11:47.240Z,5.45
2023-03-29T03:16:51.505Z,5.52
2023-03-29T03:26:59.751Z,5.58
2023-03-29T03:32:03.984Z,5.65
2023-03-29T03:37:08.074Z,5.70
2023-03-29T03:42:12.322Z,5.73
2023-03-29T03:47:14.498Z,5.80
2023-03-29T03:52:25.654Z,5.85
2023-03-29T03:57:36.830Z,5.85
2023-03-29T04:02:48.260Z,5.85
2023-03-29T04:07:59.233Z,5.89
2023-03-29T04:13:10.329Z,5.90
2023-03-29T04:18:21.592Z,5.87
2023-03-29T04:23:30.819Z,5.85
2023-03-29T04:28:34.948Z,5.85
2023-03-29T04:33:39.096Z,5.82
2023-03-29T04:38:47.354Z,5.81
2023-03-29T04:43:47.439Z,5.79
2023-03-29T04:48:51.621Z,5.76
2023-03-29T04:53:55.760Z,5.76
2023-03-29T04:58:59.943Z,5.75
2023-03-29T05:04:04.155Z,5.79
2023-03-29T05:09:08.249Z,5.83
2023-03-29T05:14:12.442Z,5.88
2023-03-29T05:19:16.572Z,5.92
2023-03-29T05:24:20.765Z,5.93
2023-03-29T05:29:24.897Z,5.93
2023-03-29T05:34:29.098Z,5.87
2023-03-29T05:39:35.146Z,5.80
2023-03-29T05:44:37.464Z,5.73
2023-03-29T05:49:41.542Z,5.71
2023-03-29T05:54:45.725Z,5.68
2023-03-29T05:59:49.915Z,5.71
2023-03-29T06:04:54.128Z,5.78
2023-03-29T06:09:56.361Z,5.82
2023-03-29T06:15:00.520Z,5.86
2023-03-29T06:20:02.856Z,5.94
2023-03-29T06:25:06.962Z,6.01
2023-03-29T06:30:11.101Z,6.08
2023-03-29T06:35:15.306Z,6.14
2023-03-29T06:40:19.435Z,6.21
2023-03-29T06:45:24.759Z,6.28
2023-03-29T06:50:27.772Z,6.38
2023-03-29T06:55:32.162Z,6.47
2023-03-29T07:00:36.056Z,6.58
2023-03-29T07:05:40.263Z,6.69
2023-03-29T07:10:44.399Z,6.76
2023-03-29T07:15:48.580Z,6.85
2023-03-29T07:20:52.809Z,6.96
2023-03-29T07:25:56.884Z,7.07
2023-03-29T07:31:01.257Z,7.21
2023-03-29T07:36:07.286Z,7.33
2023-03-29T07:41:09.369Z,7.48
2023-03-29T07:46:13.702Z,7.61
2023-03-29T07:51:17.705Z,7.66
2023-03-29T08:01:26.123Z,7.84
2023-03-29T08:06:30.180Z,7.93
2023-03-29T08:11:32.459Z,8.02
2023-03-29T08:16:36.684Z,8.20
2023-03-29T08:21:40.793Z,8.40
2023-03-29T08:26:44.961Z,8.59
2023-03-29T08:31:47.222Z,8.72
2023-03-29T08:36:51.362Z,8.92
2023-03-29T08:41:55.545Z,9.05
2023-03-29T08:46:59.793Z,9.06
2023-03-29T08:52:03.881Z,9.04
2023-03-29T08:57:08.051Z,9.02
2023-03-29T09:02:12.254Z,9.11
2023-03-29T09:07:16.369Z,9.12
2023-03-29T09:12:20.518Z,9.16
2023-03-29T09:17:24.670Z,9.35
2023-03-29T09:22:28.835Z,9.44
2023-03-29T09:27:32.984Z,9.73
2023-03-29T09:32:37.206Z,9.86
2023-03-29T09:37:41.340Z,9.94
2023-03-29T09:42:45.442Z,10.02
2023-03-29T09:47:49.689Z,10.08
2023-03-29T09:52:53.841Z,10.16
2023-03-29T09:57:57.971Z,10.33
2023-03-29T10:08:06.279Z,10.42
2023-03-29T10:13:10.454Z,10.41
2023-03-29T10:18:14.618Z,10.56
2023-03-29T10:23:16.885Z,10.82
2023-03-29T10:28:21.050Z,11.03
2023-03-29T10:33:23.301Z,11.22
2023-03-29T10:38:27.462Z,11.32
2023-03-29T10:43:31.591Z,11.35
2023-03-29T10:48:35.780Z,11.42
2023-03-29T10:53:39.988Z,11.46
2023-03-29T10:58:44.107Z,11.50
2023-03-29T11:03:48.327Z,11.72
2023-03-29T11:08:52.442Z,11.75
2023-03-29T11:13:58.749Z,11.80
2023-03-29T11:19:00.739Z,11.98
2023-03-29T11:24:04.913Z,12.18
2023-03-29T11:29:09.091Z,12.50
2023-03-29T11:34:13.294Z,12.78
2023-03-29T11:39:17.398Z,13.22
2023-03-29T11:44:21.532Z,13.33
2023-03-29T11:49:25.757Z,13.82
2023-03-29T11:54:29.850Z,14.03
2023-03-29T11:59:34.029Z,13.93
2023-03-29T12:04:38.326Z,13.68
2023-03-29T12:09:42.336Z,13.96
2023-03-29T12:14:46.520Z,14.11
2023-03-29T12:19:48.882Z,14.23
2023-03-29T12:24:52.946Z,14.24
2023-03-29T12:29:55.239Z,14.21
2023-03-29T12:34:59.381Z,14.08
2023-03-29T12:40:03.533Z,14.08
2023-03-29T12:45:07.676Z,14.05
2023-03-29T12:50:11.866Z,13.89
2023-03-29T12:55:16.001Z,13.92
2023-03-29T13:00:20.185Z,13.91
2023-03-29T13:05:24.397Z,13.64
2023-03-29T13:10:28.468Z,13.51
2023-03-29T13:15:32.671Z,13.62
2023-03-29T13:20:36.795Z,13.89
2023-03-29T13:25:40.997Z,14.20
2023-03-29T13:30:45.147Z,14.37
2023-03-29T13:35:49.370Z,14.40
2023-03-29T13:40:53.506Z,14.70
2023-03-29T13:45:57.656Z,14.61
2023-03-29T13:51:01.804Z,14.61
2023-03-29T13:56:06.125Z,14.30
2023-03-29T14:01:10.182Z,14.18
2023-03-29T14:06:14.265Z,14.32
2023-03-29T14:11:18.427Z,14.49
2023-03-29T14:16:20.728Z,14.96
2023-03-29T14:21:24.896Z,14.97
2023-03-29T14:26:27.112Z,14.84
2023-03-29T14:31:31.321Z,15.03
2023-03-29T14:36:37.520Z,14.95
2023-03-29T14:41:39.617Z,14.91
2023-03-29T14:46:43.931Z,14.85
2023-03-29T14:51:47.934Z,14.77
2023-03-29T14:56:52.096Z,14.73
2023-03-29T15:01:56.263Z,14.73
2023-03-29T15:07:00.425Z,14.81
2023-03-29T15:12:04.540Z,15.03
2023-03-29T15:17:08.735Z,15.10
2023-03-29T15:22:11.144Z,15.12
2023-03-29T15:27:15.123Z,15.13
2023-03-29T15:32:19.358Z,14.98
2023-03-29T15:37:23.525Z,14.89
2023-03-29T15:42:27.622Z,14.88
2023-03-29T15:47:31.800Z,14.77
2023-03-29T15:52:35.995Z,14.76
2023-03-29T15:57:40.135Z,14.81
2023-03-29T16:02:44.284Z,14.76
2023-03-29T16:07:48.404Z,14.68
2023-03-29T16:12:50.706Z,14.65
2023-03-29T16:17:54.882Z,14.61
2023-03-29T16:22:59.018Z,14.61
2023-03-29T16:28:01.281Z,14.63
2023-03-29T16:33:05.473Z,14.68
2023-03-29T16:38:09.620Z,14.65
2023-03-29T16:43:13.768Z,14.59
2023-03-29T16:48:17.918Z,14.52
2023-03-29T16:53:22.078Z,14.45
2023-03-29T16:58:26.240Z,14.45
2023-03-29T17:03:30.411Z,14.41
2023-03-29T17:08:34.555Z,14.31
2023-03-29T17:13:38.710Z,14.34
2023-03-29T17:18:42.849Z,14.36
2023-03-29T17:23:47.023Z,14.26
2023-03-29T17:28:51.165Z,14.21
2023-03-29T17:33:55.367Z,14.14
2023-03-29T17:39:01.966Z,14.11
2023-03-29T17:44:03.721Z,14.08
2023-03-29T17:49:08.144Z,14.14
2023-03-29T17:54:11.981Z,14.15
2023-03-29T17:59:16.138Z,14.15
2023-03-29T18:04:20.333Z,14.18
2023-03-29T18:09:24.476Z,14.20
2023-03-29T18:14:26.736Z,14.13
2023-03-29T18:19:30.882Z,14.08
2023-03-29T18:24:35.056Z,14.05
2023-03-29T18:29:39.247Z,14.04
2023-03-29T18:34:43.403Z,14.02
2023-03-29T18:39:47.560Z,13.96
2023-03-29T18:44:51.745Z,13.87
2023-03-29T18:49:55.891Z,13.81
2023-03-29T18:55:00.053Z,13.75
2023-03-29T19:00:04.224Z,13.64
2023-03-29T19:05:08.381Z,13.57
2023-03-29T19:10:12.560Z,13.57
2023-03-29T19:15:16.694Z,13.54
2023-03-29T19:20:20.930Z,13.52
2023-03-29T19:25:25.050Z,13.44
2023-03-29T19:30:29.250Z,13.44
2023-03-29T19:35:33.335Z,13.43
2023-03-29T19:40:37.490Z,13.34
2023-03-29T19:45:41.646Z,13.33
2023-03-29T19:50:45.788Z,13.26
2023-03-29T19:55:49.965Z,13.25
2023-03-29T20:00:52.228Z,13.26
2023-03-29T20:05:56.357Z,13.34
2023-03-29T20:10:58.622Z,13.30
2023-03-29T20:16:02.819Z,13.28
2023-03-29T20:21:06.998Z,13.26
2023-03-29T20:26:09.238Z,13.27
2023-03-29T20:31:13.393Z,13.25
2023-03-29T20:36:17.840Z,13.21
2023-03-29T20:41:21.736Z,13.18
2023-03-29T20:46:25.959Z,13.18
2023-03-29T20:51:30.076Z,13.14
2023-03-29T20:56:34.234Z,13.14
2023-03-29T21:01:38.410Z,13.16
2023-03-29T21:06:42.557Z,13.19
2023-03-29T21:11:46.708Z,13.09
2023-03-29T21:16:50.840Z,13.04
2023-03-29T21:21:55.030Z,12.97
2023-03-29T21:26:59.162Z,13.00
2023-03-29T21:32:03.392Z,13.04
2023-03-29T21:37:07.497Z,13.04
2023-03-29T21:42:11.660Z,13.05
2023-03-29T21:47:15.785Z,13.01
2023-03-29T21:52:19.967Z,13.00
2023-03-29T21:57:24.243Z,12.94
2023-03-29T22:02:28.384Z,12.95
2023-03-29T22:07:32.428Z,12.89
2023-03-29T22:12:34.738Z,12.85
2023-03-29T22:17:38.914Z,12.83
2023-03-29T22:22:41.153Z,12.82
2023-03-29T22:27:45.350Z,12.82
2023-03-29T22:32:49.532Z,12.82
2023-03-29T22:37:53.615Z,12.90
2023-03-29T22:42:57.791Z,13.02
2023-03-29T22:48:02.086Z,13.06
2023-03-29T22:53:06.107Z,13.19
2023-03-29T22:58:10.267Z,13.17
2023-03-29T23:03:14.449Z,13.25
2023-03-29T23:08:18.601Z,13.30
2023-03-29T23:13:22.757Z,13.36
2023-03-29T23:18:26.910Z,13.26
2023-03-29T23:23:31.070Z,13.11
2023-03-29T23:28:35.226Z,13.23
2023-03-29T23:33:39.386Z,13.27
2023-03-29T23:38:43.581Z,13.25
2023-03-29T23:43:47.727Z,13.33
2023-03-29T23:48:51.869Z,13.31
2023-03-29T23:53:56.058Z,13.22
2023-03-29T23:59:00.228Z,13.18
